Latest Coastal Weather Observations for Low Head

IDT60701

Issued at 5:12 am EST Thursday 28 July 2016 (issued every 10 minutes, with the page automatically refreshed every 10 minutes)

About coastal observations | Map of coastal stations | Coastal observations for TAS | Marine services | Other Formats
Station Details ID: 091293 Name: LOW HEAD Lat: -41.05 Lon: 146.79 Height: 3.0 m
Data from the previous 72 hours. | See also: Recent months at Low Head
Date/Time
EST
Temp
°C
Wind Pressure Rain since
9am
mm
Weather Cloud Vis
km
Sea
Height
m
Swell
Dir  Spd
kts
Gust
kts
hPa Trend Height
m
Period
s
Dir
28/05:00am 11.5 WNW 27 33 1010.7 - 0.0 - - - - - - -
28/04:30am 11.2 W 27 32 1011.0 - 0.0 - - - - - - -
28/04:00am 11.3 W 24 29 1011.5 - 0.0 - - - - - - -
28/03:30am 11.2 WNW 25 29 1011.6 - 0.0 - - - - - - -
28/03:00am 11.1 WNW 23 29 1011.8 - 0.0 - - - - - - -
28/02:30am 11.2 W 24 28 1011.7 - 0.0 - - - - - - -
28/02:00am 11.2 WNW 25 30 1011.4 - 0.0 - - - - - - -
28/01:30am 11.1 W 26 31 1010.8 - 0.0 - - - - - - -
28/01:00am 11.3 W 27 31 1010.7 - 0.0 - - - - - - -
28/12:30am 11.2 W 27 32 1010.8 - 0.0 - - - - - - -
28/12:00am 11.4 W 26 31 1010.9 - 0.0 - - - - - - -
 
Date/Time
EST
Temp
°C
Wind Pressure Rain since
9am
mm
Weather Cloud Vis
km
Sea
Height
m
Swell
Dir  Spd
kts
Gust
kts
hPa Trend Height
m
Period
s
Dir
27/11:30pm 11.6 W 27 31 1010.8 - 0.0 - - - - - - -
27/11:00pm 11.5 W 27 31 1010.7 - 0.0 - - - - - - -
27/10:30pm 11.5 W 27 32 1010.3 - 0.0 - - - - - - -
27/10:00pm 11.5 W 28 33 1010.2 - 0.0 - - - - - - -
27/09:30pm 11.4 W 29 35 1010.1 - 0.0 - - - - - - -
27/09:00pm 11.2 W 30 37 1009.9 - 0.0 - - - - - - -
27/08:30pm 11.0 W 28 33 1009.7 - 0.0 - - - - - - -
27/08:00pm 10.7 WNW 30 35 1009.5 - 0.0 - - - - - - -
27/07:30pm 10.6 WNW 31 36 1009.4 - 0.0 - - - - - - -
27/07:00pm 10.4 WNW 31 37 1009.1 - 0.0 - - - - - - -
27/06:30pm 10.4 WNW 32 37 1008.7 - 0.0 - - - - - - -
27/06:00pm 10.4 W 32 38 1008.8 - 0.0 - - - - - - -
27/05:30pm 10.2 W 33 41 1008.5 - 0.0 - - - - - - -
27/05:00pm 10.2 WNW 32 37 1008.0 - 0.0 - - - - - - -
27/04:30pm 10.1 W 30 34 1007.9 - 0.0 - - - - - - -
27/04:00pm 10.4 W 29 36 1008.0 - 0.0 - - - - - - -
27/03:30pm 10.3 WNW 24 28 1008.1 - 0.0 - - - - - - -
27/03:00pm 10.4 W 27 35 1008.4 - 0.0 - - - - - - -
27/02:30pm 10.3 W 24 28 1008.2 - 0.0 - - - - - - -
27/02:00pm 10.3 W 21 25 1007.9 - 0.0 - - - - - - -
27/01:30pm 10.2 W 17 21 1007.8 - 0.0 - - - - - - -
27/01:00pm 9.7 W 21 25 1007.9 - 0.0 - - - - - - -
27/12:30pm 9.9 W 20 26 1007.9 - 0.0 - - - - - - -
27/12:00pm 9.5 W 24 29 1007.9 - 0.0 - - - - - - -
27/11:30am 9.4 W 22 25 1007.9 - 0.0 - - - - - - -
27/11:00am 9.4 W 16 20 1008.0 - 0.0 - - - - - - -
27/10:30am 9.2 WSW 18 22 1007.2 - 0.0 - - - - - - -
27/10:00am 9.0 W 23 27 1006.4 - 0.0 - - - - - - -
27/09:50am 8.9 W 19 25 1006.4 - 0.0 - - - - - - -
27/09:30am 8.7 W 14 18 1006.2 - 0.0 - - - - - - -
27/09:00am 8.2 WSW 13 16 1005.8 - - - - - - - - -
27/08:30am 7.8 WSW 16 18 1004.8 - - - - - - - - -
27/08:00am 7.7 SW 16 18 1004.0 - - - - - - - - -
27/07:30am 7.8 SW 15 18 1003.1 - - - - - - - - -
27/07:00am 8.3 SW 19 23 1002.0 - - - - - - - - -
27/06:30am 9.0 WSW 22 25 1001.3 - - - - - - - - -
27/06:00am 9.8 WSW 20 24 1000.4 - - - - - - - - -
27/05:30am 10.4 W 20 23 999.6 - - - - - - - - -
27/05:00am 10.5 W 21 25 998.9 - - - - - - - - -
27/04:30am 10.7 W 24 28 998.7 - - - - - - - - -
27/04:00am 10.4 WNW 25 30 998.4 - - - - - - - - -
27/03:30am 10.3 WNW 24 30 998.4 - - - - - - - - -
27/03:00am 9.5 WNW 23 29 998.3 - - Recent precip. - - - - - -
27/02:54am 9.4 WNW 21 25 998.5 - - - - - - - - -
27/02:31am 9.2 W 19 30 999.2 - 27.8 - - - - - - -
27/02:30am 8.9 W 18 26 998.8 - 27.6 - - - - - - -
27/02:27am 8.9 W 17 21 998.3 - 26.6 - - - - - - -
27/02:00am 9.8 WNW 26 32 998.8 - 23.0 - - - - - - -
27/01:30am 8.7 WNW 29 34 999.2 - 21.0 - - - - - - -
27/01:19am 8.1 W 20 35 999.3 - 19.6 - - - - - - -
27/01:17am 8.4 W 17 32 999.4 - 19.4 - - - - - - -
27/01:00am 7.6 WSW 18 22 999.0 - 15.6 - - - - - - -
27/12:30am 9.0 NW 28 39 999.2 - 12.4 - - - - - - -
27/12:29am 9.0 NW 29 39 999.1 - 12.2 - - - - - - -
27/12:27am 10.7 NW 29 39 998.8 - 12.0 - - - - - - -
27/12:13am 10.5 NW 29 39 999.2 - 11.8 - - - - - - -
27/12:04am 9.4 WNW 15 32 999.5 - 11.8 - - - - - - -
27/12:00am 8.9 W 14 22 999.5 - 11.6 Rain - - - - - -
 
Date/Time
EST
Temp
°C
Wind Pressure Rain since
9am
mm
Weather Cloud Vis
km
Sea
Height
m
Swell
Dir  Spd
kts
Gust
kts
hPa Trend Height
m
Period
s
Dir
26/11:30pm 8.5 W 19 23 1000.3 - 9.2 - - - - - - -
26/11:00pm 8.8 W 18 21 1000.6 - 7.0 - - - - - - -
26/10:30pm 8.7 W 25 33 1000.9 - 5.8 - - - - - - -
26/10:27pm 8.8 WNW 27 37 1001.1 - 5.6 - - - - - - -
26/10:00pm 9.2 WNW 27 35 1001.1 - 4.2 - - - - - - -
26/09:30pm 9.5 NW 23 29 1001.4 - 3.2 - - - - - - -
26/09:00pm 9.0 WNW 17 20 1001.7 - 2.8 Rain - - - - - -
26/08:30pm 8.8 WNW 21 25 1002.2 - 1.6 - - - - - - -
26/08:00pm 9.4 WNW 23 28 1002.3 - 0.2 - - - - - - -
26/07:30pm 9.3 WNW 25 30 1002.5 - 0.2 - - - - - - -
26/07:00pm 9.7 WNW 24 29 1002.5 - 0.0 - - - - - - -
26/06:30pm 10.0 NW 24 29 1002.5 - 0.0 - - - - - - -
26/06:00pm 10.0 NW 25 31 1002.5 - 0.0 - - - - - - -
26/05:30pm 10.1 NW 26 33 1002.4 - 0.0 - - - - - - -
26/05:00pm 10.3 NW 27 33 1002.3 - 0.0 - - - - - - -
26/04:30pm 10.2 WNW 26 30 1002.5 - 0.0 - - - - - - -
26/04:00pm 10.0 WNW 25 31 1002.5 - 0.0 - - - - - - -
26/03:30pm 9.8 WNW 27 33 1002.8 - 0.0 - - - - - - -
26/03:00pm 9.5 W 30 35 1002.9 - 0.0 - - - - - - -
26/02:30pm 9.3 W 31 41 1003.1 - 0.0 - - - - - - -
26/02:23pm 9.8 WNW 29 41 1003.1 - 0.0 - - - - - - -
26/02:00pm 10.4 WNW 25 31 1003.3 - 0.0 - - - - - - -
26/01:30pm 10.1 WNW 26 37 1003.6 - 0.0 - - - - - - -
26/01:07pm 10.4 WNW 26 37 1003.4 - 0.0 - - - - - - -
26/01:00pm 10.4 WNW 27 32 1003.5 - 0.0 - - - - - - -
26/12:30pm 10.2 WNW 27 31 1003.4 - 0.0 - - - - - - -
26/12:00pm 10.1 WNW 27 32 1003.7 - 0.0 - - - - - - -
26/11:30am 10.0 WNW 27 31 1003.6 - 0.0 - - - - - - -
26/11:00am 9.3 WNW 26 33 1003.7 - 0.0 - - - - - - -
26/10:30am 9.1 W 24 28 1003.5 - 0.0 - - - - - - -
26/10:00am 8.8 W 27 32 1003.3 - 0.0 - - - - - - -
26/09:30am 8.7 W 28 34 1003.0 - 0.0 - - - - - - -
26/09:00am 8.7 W 27 31 1002.5 - 4.0 - - - - - - -
26/08:30am 8.8 W 28 33 1002.3 - 4.0 - - - - - - -
26/08:00am 8.2 W 27 35 1002.1 - 4.0 - - - - - - -
26/07:30am 8.3 W 28 33 1001.7 - 4.0 - - - - - - -
26/07:00am 7.7 W 30 35 1001.1 - 4.0 - - - - - - -
26/06:30am 8.2 W 30 37 1000.6 - 4.0 - - - - - - -
26/06:00am 7.9 W 26 30 1000.0 - 4.0 - - - - - - -
26/05:34am 7.9 WSW 29 39 999.5 - 4.0 - - - - - - -
26/05:30am 8.0 WSW 31 39 999.3 - 4.0 - - - - - - -
26/05:00am 8.3 W 29 35 998.9 - 4.0 - - - - - - -
26/04:46am 8.2 W 27 34 998.6 - 4.0 - - - - - - -
26/04:30am 8.1 W 34 41 998.3 - 4.0 - - - - - - -
26/04:06am 8.4 W 32 42 997.7 - 4.0 - - - - - - -
26/04:00am 8.7 W 31 38 997.5 - 4.0 - - - - - - -
26/03:30am 9.2 W 30 38 997.0 - 4.0 - - - - - - -
26/03:00am 8.6 WNW 30 37 997.1 - 4.0 - - - - - - -
26/02:30am 8.8 W 32 40 997.0 - 4.0 - - - - - - -
26/02:10am 8.6 W 33 43 996.8 - 4.0 - - - - - - -
26/02:00am 8.9 W 33 40 996.7 - 4.0 - - - - - - -
26/01:36am 8.8 WNW 32 43 996.4 - 4.0 - - - - - - -
26/01:30am 8.5 WNW 29 34 996.3 - 4.0 - - - - - - -
26/01:00am 8.4 W 30 37 996.0 - 4.0 - - - - - - -
26/12:30am 8.5 W 33 40 996.0 - 4.0 - - - - - - -
26/12:05am 8.8 W 33 44 995.3 - 4.0 - - - - - - -
26/12:00am 8.9 W 32 37 995.5 - 4.0 - - - - - - -
 
Date/Time
EST
Temp
°C
Wind Pressure Rain since
9am
mm
Weather Cloud Vis
km
Sea
Height
m
Swell
Dir  Spd
kts
Gust
kts
hPa Trend Height
m
Period
s
Dir
25/11:48pm 8.9 W 31 41 995.4 - 4.0 - - - - - - -
25/11:30pm 8.7 WNW 33 41 995.3 - 4.0 - - - - - - -
25/11:00pm 8.1 WNW 35 48 994.3 - 4.0 - - - - - - -
25/10:39pm 8.8 W 37 49 995.0 - 4.0 - - - - - - -
25/10:30pm 8.8 W 34 43 994.7 - 4.0 - - - - - - -
25/10:00pm 9.6 WNW 37 45 994.1 - 4.0 - - - - - - -
25/09:30pm 9.3 W 35 47 993.4 - 4.0 - - - - - - -
25/09:28pm 9.4 W 35 47 993.4 - 4.0 - - - - - - -
25/09:00pm 9.6 W 35 43 993.5 - 4.0 - - - - - - -
25/08:41pm 9.7 WNW 35 45 993.2 - 4.0 - - - - - - -
25/08:30pm 9.8 WNW 36 45 992.8 - 4.0 - - - - - - -
25/08:04pm 10.1 WNW 31 41 992.4 - 4.0 - - - - - - -
25/08:00pm 10.2 WNW 31 40 992.2 - 4.0 - - - - - - -
25/07:30pm 9.7 NW 35 48 992.7 - 4.0 - - - - - - -
25/07:22pm 9.7 NW 33 45 992.8 - 3.8 - - - - - - -
25/07:11pm 9.3 NNW 36 49 992.9 - 3.8 - - - - - - -
25/07:03pm 9.4 N 39 49 992.5 - 3.2 - - - - - - -
25/07:00pm 9.6 NNW 40 49 992.7 - 3.0 - - - - - - -
25/06:31pm 10.6 NNW 35 45 993.5 - 1.2 - - - - - - -
25/06:30pm 10.8 NNW 35 42 993.5 - 1.2 - - - - - - -
25/06:08pm 11.5 N 30 40 993.6 - 0.4 - - - - - - -
25/06:00pm 11.9 NNW 28 37 994.0 - 0.4 - - - - - - -
25/05:30pm 11.8 NNW 29 35 995.0 - 0.4 - - - - - - -
25/05:07pm 11.3 NNW 26 36 995.6 - 0.4 - - - - - - -
25/05:00pm 11.4 NNW 23 30 995.6 - 0.4 - - - - - - -
25/04:30pm 10.5 NW 20 24 996.6 - 0.2 - - - - - - -
25/04:00pm 11.6 NW 19 22 996.8 - 0.0 - - - - - - -
25/03:30pm 11.4 WNW 17 21 997.3 - 0.0 - - - - - - -
25/03:00pm 11.3 WNW 22 25 997.9 - 0.0 - - - - - - -
25/02:30pm 11.8 WNW 23 27 998.3 - 0.0 - - - - - - -
25/02:00pm 11.3 WNW 22 26 998.3 - 0.0 - - - - - - -
25/01:30pm 12.0 WNW 20 23 998.7 - 0.0 - - - - - - -
25/01:00pm 11.9 WNW 19 22 999.2 - 0.0 - - - - - - -
25/12:30pm 11.8 WNW 15 16 999.6 - 0.0 - - - - - - -
25/12:00pm 11.1 WNW 13 16 1000.2 - 0.0 - - - - - - -
25/11:30am 10.4 WNW 15 18 1000.5 - 0.0 - - - - - - -
25/11:00am 10.3 WNW 10 12 1000.6 - 0.0 - - - - - - -
25/10:30am 10.4 WNW 7 8 1000.6 - 0.0 - - - - - - -
25/10:00am 9.0 SSW 6 8 1000.5 - 0.0 - - - - - - -
25/09:30am 8.4 S 9 11 1000.0 - 0.0 - - - - - - -
25/09:00am 7.9 SSW 12 14 999.7 - 20.6 Recent precip. - - - - - -
25/08:30am 8.3 ESE 9 12 999.1 - 20.6 - - - - - - -
25/08:00am 7.9 SSE 7 9 999.8 - 19.8 - - - - - - -
25/07:30am 7.6 SE 6 9 1000.0 - 18.2 - - - - - - -
25/07:00am 7.7 S 11 13 999.9 - 16.4 - - - - - - -
25/06:30am 7.8 SE 6 8 1000.1 - 16.2 - - - - - - -
25/06:00am 7.4 SSE 8 10 1000.1 - 14.4 Recent precip. - - - - - -
25/05:30am 7.7 S 9 13 1000.3 - 14.0 - - - - - - -

Other Formats:

Comma delimited format used in spreadsheet applications
http://www.bom.gov.au/fwo/IDT60701/IDT60701.95964.axf

JavaScript Object Notation format (JSON) in row-major order
http://www.bom.gov.au/fwo/IDT60701/IDT60701.95964.json